createdAt,value
2022-08-14T00:02:01.423Z,97092.88
2022-08-14T00:05:06.174Z,97090.56
2022-08-14T00:08:14.037Z,97088.28
2022-08-14T00:11:17.368Z,97089.84
2022-08-14T00:14:20.608Z,97095.28
2022-08-14T00:17:26.777Z,97085.56
2022-08-14T00:20:36.002Z,97074.34
2022-08-14T00:23:54.056Z,97076.19
2022-08-14T00:26:57.066Z,97086.19
2022-08-14T00:29:59.975Z,97084.19
2022-08-14T00:33:15.066Z,97086.59
2022-08-14T00:36:35.993Z,97083.56
2022-08-14T00:39:43.072Z,97084.97
2022-08-14T00:42:54.839Z,97079.66
2022-08-14T00:45:59.271Z,97079.47
2022-08-14T00:49:03.031Z,97074.19
2022-08-14T00:52:05.869Z,97070.03
2022-08-14T00:55:11.074Z,97062.97
2022-08-14T00:58:32.778Z,97069.31
2022-08-14T01:01:36.994Z,97072.44
2022-08-14T01:04:53.559Z,97068.56
2022-08-14T01:07:58.574Z,97066.38
2022-08-14T01:11:03.614Z,97063.50
2022-08-14T01:14:25.236Z,97065.13
2022-08-14T01:17:49.230Z,97066.31
2022-08-14T01:21:06.549Z,97064.44
2022-08-14T01:24:15.347Z,97061.63
2022-08-14T01:27:31.871Z,97072.50
2022-08-14T01:30:55.902Z,97079.19
2022-08-14T01:35:19.760Z,97075.47
2022-08-14T01:37:28.875Z,97071.63
2022-08-14T01:40:40.981Z,97074.53
2022-08-14T01:43:56.708Z,97071.09
2022-08-14T01:47:01.848Z,97069.69
2022-08-14T01:50:10.305Z,97067.38
2022-08-14T01:53:13.637Z,97068.56
2022-08-14T01:56:19.567Z,97062.94
2022-08-14T01:59:26.785Z,97056.09
2022-08-14T02:02:41.152Z,97052.19
2022-08-14T02:05:49.620Z,97051.38
2022-08-14T02:08:52.941Z,97047.16
2022-08-14T02:11:59.253Z,97043.47
2022-08-14T02:15:02.127Z,97039.03
2022-08-14T02:18:05.139Z,97041.31
2022-08-14T02:21:07.907Z,97041.91
2022-08-14T02:24:40.037Z,97036.59
2022-08-14T02:28:22.232Z,97023.66
2022-08-14T02:31:01.038Z,97034.50
2022-08-14T02:34:22.496Z,97029.59
2022-08-14T02:37:47.609Z,97030.56
2022-08-14T02:40:51.273Z,97031.34
2022-08-14T02:43:55.391Z,97037.78
2022-08-14T02:47:03.920Z,97043.69
2022-08-14T02:50:10.580Z,97044.16
2022-08-14T02:53:13.460Z,97051.38
2022-08-14T02:56:30.190Z,97049.97
2022-08-14T02:59:44.516Z,97053.13
2022-08-14T03:02:58.546Z,97052.38
2022-08-14T03:06:02.346Z,97047.97
2022-08-14T03:09:05.786Z,97041.56
2022-08-14T03:12:08.941Z,97049.00
2022-08-14T03:15:16.653Z,97038.22
2022-08-14T03:18:30.682Z,97044.44
2022-08-14T03:21:36.405Z,97137.13
2022-08-14T03:24:39.347Z,97144.06
2022-08-14T03:27:48.488Z,97168.44
2022-08-14T03:31:02.960Z,97164.59
2022-08-14T03:34:05.727Z,97171.16
2022-08-14T03:37:51.008Z,97180.63
2022-08-14T03:40:38.187Z,97188.31
2022-08-14T03:43:41.209Z,97182.09
2022-08-14T03:46:54.437Z,97194.72
2022-08-14T03:49:58.303Z,97205.69
2022-08-14T03:53:02.129Z,97204.41
2022-08-14T03:56:06.070Z,97204.19
2022-08-14T03:59:18.029Z,97210.16
2022-08-14T04:02:33.002Z,97220.56
2022-08-14T04:05:43.259Z,97225.13
2022-08-14T04:08:53.283Z,97224.06
2022-08-14T04:12:01.944Z,97230.97
2022-08-14T04:15:05.906Z,97224.53
2022-08-14T04:18:11.886Z,97229.53
2022-08-14T04:21:17.117Z,97226.53
2022-08-14T04:24:20.073Z,97229.91
2022-08-14T04:27:29.426Z,97231.91
2022-08-14T04:30:33.368Z,97225.16
2022-08-14T04:33:37.741Z,97224.06
2022-08-14T04:37:00.928Z,97218.28
2022-08-14T04:40:27.760Z,97220.38
2022-08-14T04:43:40.162Z,97221.31
2022-08-14T04:47:05.395Z,97219.50
2022-08-14T04:50:10.656Z,97224.81
2022-08-14T04:53:16.375Z,97216.84
2022-08-14T04:56:31.476Z,97201.09
2022-08-14T04:59:37.400Z,97196.16
2022-08-14T05:02:45.839Z,97197.94
2022-08-14T05:05:51.697Z,97198.75
2022-08-14T05:08:59.894Z,97195.50
2022-08-14T05:13:13.282Z,97192.03
2022-08-14T05:15:29.492Z,97208.34
2022-08-14T05:19:17.631Z,97200.16
2022-08-14T05:22:15.692Z,97199.72
2022-08-14T05:25:20.708Z,97191.16
2022-08-14T05:28:27.030Z,97187.84
2022-08-14T05:31:39.690Z,97179.63
2022-08-14T05:34:45.518Z,97179.63
2022-08-14T05:37:50.132Z,97172.56
2022-08-14T05:40:53.135Z,97177.16
2022-08-14T05:43:56.789Z,97167.22
2022-08-14T05:47:01.078Z,97173.34
2022-08-14T05:50:03.893Z,97163.19
2022-08-14T05:53:09.235Z,97167.16
2022-08-14T05:56:12.297Z,97167.41
2022-08-14T05:59:16.648Z,97176.34
2022-08-14T06:02:21.798Z,97171.31
2022-08-14T06:05:28.890Z,97160.91
2022-08-14T06:08:36.546Z,97152.13
2022-08-14T06:11:44.629Z,97145.53
2022-08-14T06:14:52.703Z,97132.66
2022-08-14T06:17:59.267Z,97115.28
2022-08-14T06:21:02.840Z,97109.63
2022-08-14T06:24:10.574Z,97115.28
2022-08-14T06:27:21.635Z,97104.84
2022-08-14T06:30:30.285Z,97099.34
2022-08-14T06:35:03.715Z,97104.19
2022-08-14T06:37:12.894Z,97091.09
2022-08-14T06:40:27.984Z,97084.00
2022-08-14T06:43:32.459Z,97083.47
2022-08-14T06:46:37.259Z,97075.22
2022-08-14T06:49:48.512Z,97071.22
2022-08-14T06:52:59.676Z,97065.97
2022-08-14T06:56:03.884Z,97059.63
2022-08-14T06:59:06.742Z,97058.94
2022-08-14T07:02:50.766Z,97053.13
2022-08-14T07:05:58.425Z,97048.69
2022-08-14T07:09:01.637Z,97041.88
2022-08-14T07:12:06.193Z,97041.47
2022-08-14T07:15:10.361Z,97046.59
2022-08-14T07:18:14.875Z,97043.81
2022-08-14T07:21:17.851Z,97041.59
2022-08-14T07:24:21.751Z,97043.16
2022-08-14T07:27:33.414Z,97044.31
2022-08-14T07:30:41.999Z,97048.44
2022-08-14T07:34:05.553Z,97052.56
2022-08-14T07:37:14.783Z,97043.06
2022-08-14T07:40:22.243Z,97052.09
2022-08-14T07:43:32.164Z,97058.91
2022-08-14T07:46:35.119Z,97058.38
2022-08-14T07:49:39.898Z,97080.00
2022-08-14T07:52:44.483Z,97083.81
2022-08-14T07:56:00.195Z,97082.47
2022-08-14T07:59:17.832Z,97079.06
2022-08-14T08:02:21.863Z,97087.38
2022-08-14T08:05:25.914Z,97097.34
2022-08-14T08:08:31.245Z,97091.41
2022-08-14T08:11:37.525Z,97095.69
2022-08-14T08:14:56.015Z,97088.16
2022-08-14T08:18:07.448Z,97084.38
2022-08-14T08:21:23.009Z,97087.28
2022-08-14T08:24:30.040Z,97090.47
2022-08-14T08:27:32.884Z,97090.69
2022-08-14T08:30:49.466Z,97087.75
2022-08-14T08:33:53.829Z,97084.47
2022-08-14T08:37:02.717Z,97073.94
2022-08-14T08:40:10.187Z,97072.31
2022-08-14T08:43:25.186Z,97076.59
2022-08-14T08:46:29.842Z,97066.34
2022-08-14T08:49:48.464Z,97060.88
2022-08-14T08:52:56.045Z,97051.91
2022-08-14T08:55:59.354Z,97043.00
2022-08-14T08:59:02.733Z,97043.50
2022-08-14T09:02:10.289Z,97047.50
2022-08-14T09:05:13.425Z,97037.16
2022-08-14T09:08:31.075Z,97028.41
2022-08-14T09:11:36.252Z,97027.13
2022-08-14T09:14:39.978Z,97012.97
2022-08-14T09:17:44.709Z,97021.31
2022-08-14T09:20:51.907Z,97009.06
2022-08-14T09:24:26.799Z,97011.56
2022-08-14T09:27:22.729Z,97005.28
2022-08-14T09:30:33.148Z,96994.72
2022-08-14T09:33:59.419Z,97011.75
2022-08-14T09:37:25.887Z,96988.19
2022-08-14T09:40:43.718Z,96989.44
2022-08-14T09:43:59.581Z,96978.09
2022-08-14T09:47:07.458Z,96983.88
2022-08-14T09:50:26.858Z,96982.44
2022-08-14T09:54:12.694Z,96976.59
2022-08-14T09:57:03.370Z,96972.19
2022-08-14T10:00:28.296Z,96965.47
2022-08-14T10:03:34.692Z,96966.56
2022-08-14T10:06:45.364Z,96956.09
2022-08-14T10:09:59.671Z,96951.59
2022-08-14T10:13:05.420Z,96951.81
2022-08-14T10:16:08.714Z,96951.44
2022-08-14T10:19:27.581Z,96952.81
2022-08-14T10:23:12.880Z,96947.31
2022-08-14T10:26:01.882Z,96938.69
2022-08-14T10:29:19.803Z,96932.59
2022-08-14T10:32:28.652Z,96930.81
2022-08-14T10:35:48.187Z,96937.75
2022-08-14T10:38:58.852Z,96926.22
2022-08-14T10:42:04.501Z,96922.22
2022-08-14T10:45:21.874Z,96931.31
2022-08-14T10:48:38.173Z,96919.91
2022-08-14T10:51:55.435Z,96922.56
2022-08-14T10:55:14.079Z,96919.94
2022-08-14T10:58:27.777Z,96899.06
2022-08-14T11:01:41.548Z,96900.81
2022-08-14T11:04:44.700Z,96910.00
2022-08-14T11:07:59.706Z,96893.78
2022-08-14T11:11:05.917Z,96893.34
2022-08-14T11:14:09.781Z,96884.00
2022-08-14T11:17:14.120Z,96883.03
2022-08-14T11:20:25.678Z,96893.53
2022-08-14T11:23:38.406Z,96888.44
2022-08-14T11:26:46.059Z,96886.19
2022-08-14T11:29:52.830Z,96890.13
2022-08-14T11:33:05.359Z,96873.97
2022-08-14T11:36:17.908Z,96876.19
2022-08-14T11:39:33.820Z,96862.72
2022-08-14T11:43:06.326Z,96865.78
2022-08-14T11:46:06.568Z,96859.53
2022-08-14T11:49:34.858Z,96856.91
2022-08-14T11:52:40.445Z,96856.53
2022-08-14T11:55:43.491Z,96848.63
2022-08-14T11:58:53.044Z,96843.97
2022-08-14T12:01:56.231Z,96839.03
2022-08-14T12:04:59.115Z,96836.19
2022-08-14T12:08:11.893Z,96838.00
2022-08-14T12:11:16.949Z,96831.88
2022-08-14T12:14:30.252Z,96832.50
2022-08-14T12:17:49.701Z,96834.09
2022-08-14T12:20:54.563Z,96821.47
2022-08-14T12:24:08.546Z,96820.56
2022-08-14T12:27:13.104Z,96814.25
2022-08-14T12:30:36.005Z,96815.41
2022-08-14T12:33:46.931Z,96813.03
2022-08-14T12:37:06.273Z,96808.22
2022-08-14T12:40:15.660Z,96803.03
2022-08-14T12:43:23.536Z,96801.22
2022-08-14T12:46:30.618Z,96798.41
2022-08-14T12:49:34.257Z,96794.78
2022-08-14T12:52:47.424Z,96788.56
2022-08-14T12:56:21.490Z,96780.84
2022-08-14T12:59:33.181Z,96778.56
2022-08-14T13:02:45.884Z,96775.34
2022-08-14T13:09:11.081Z,96754.56
2022-08-14T13:12:35.106Z,96749.13
2022-08-14T13:15:40.523Z,96752.81
2022-08-14T13:18:47.000Z,96749.47
2022-08-14T13:22:05.474Z,96747.41
2022-08-14T13:25:15.784Z,96740.06
2022-08-14T13:28:30.265Z,96736.72
2022-08-14T13:31:40.835Z,96727.88
2022-08-14T13:34:49.446Z,96725.00
2022-08-14T13:37:56.669Z,96718.88
2022-08-14T13:41:00.327Z,96713.06
2022-08-14T13:44:03.373Z,96713.34
2022-08-14T13:47:06.996Z,96709.03
2022-08-14T13:50:15.734Z,96703.47
2022-08-14T13:53:25.158Z,96702.22
2022-08-14T13:56:36.339Z,96701.06
2022-08-14T13:59:44.657Z,96699.59
2022-08-14T14:02:48.679Z,96700.88
2022-08-14T14:05:57.051Z,96693.44
2022-08-14T14:09:00.334Z,96689.41
2022-08-14T14:12:03.993Z,96683.31
2022-08-14T14:15:09.680Z,96684.44
2022-08-14T14:18:15.409Z,96662.69
2022-08-14T14:21:34.523Z,96665.25
2022-08-14T14:24:40.215Z,96662.53
2022-08-14T14:27:49.657Z,96655.47
2022-08-14T14:30:57.428Z,96662.00
2022-08-14T14:34:07.585Z,96659.81
2022-08-14T14:37:30.558Z,96668.91
2022-08-14T14:40:53.622Z,96668.56
2022-08-14T14:43:58.978Z,96669.59
2022-08-14T14:47:03.055Z,96651.03
2022-08-14T14:50:12.792Z,96655.63
2022-08-14T14:53:16.977Z,96654.53
2022-08-14T14:56:51.688Z,96652.56
2022-08-14T14:59:43.920Z,96646.97
2022-08-14T15:02:49.772Z,96647.13
2022-08-14T15:05:56.291Z,96649.78
2022-08-14T15:09:01.490Z,96646.13
2022-08-14T15:12:16.241Z,96644.63
2022-08-14T15:15:27.847Z,96647.22
2022-08-14T15:18:36.736Z,96639.59
2022-08-14T15:21:42.384Z,96645.53
2022-08-14T15:24:47.000Z,96631.44
2022-08-14T15:27:51.105Z,96629.84
2022-08-14T15:30:59.209Z,96628.44
2022-08-14T15:34:45.929Z,96625.28
2022-08-14T15:37:42.340Z,96633.44
2022-08-14T15:40:51.494Z,96626.88
2022-08-14T15:44:00.074Z,96622.88
2022-08-14T15:47:06.938Z,96629.38
2022-08-14T15:50:10.845Z,96622.00
2022-08-14T15:53:14.521Z,96624.31
2022-08-14T15:56:32.914Z,96628.41
2022-08-14T16:00:00.415Z,96622.59
2022-08-14T16:03:18.008Z,96624.50
2022-08-14T16:06:29.748Z,96628.03
2022-08-14T16:09:32.871Z,96626.44
2022-08-14T16:12:41.511Z,96620.03
2022-08-14T16:15:53.395Z,96614.72
2022-08-14T16:18:58.229Z,96606.84
2022-08-14T16:22:59.053Z,96611.91
2022-08-14T16:25:34.560Z,96609.88
2022-08-14T16:28:40.094Z,96610.41
2022-08-14T16:31:45.076Z,96594.56
2022-08-14T16:34:54.990Z,96592.09
2022-08-14T16:38:00.147Z,96586.97
2022-08-14T16:41:27.512Z,96583.41
2022-08-14T16:44:37.806Z,96582.50
2022-08-14T16:47:44.343Z,96575.03
2022-08-14T16:50:51.101Z,96576.84
2022-08-14T16:53:55.070Z,96573.94
2022-08-14T16:57:13.419Z,96567.38
2022-08-14T17:00:32.866Z,96566.63
2022-08-14T17:03:52.971Z,96573.66
2022-08-14T17:06:58.778Z,96559.06
2022-08-14T17:10:09.671Z,96572.22
2022-08-14T17:13:20.265Z,96559.09
2022-08-14T17:16:26.013Z,96561.44
2022-08-14T17:19:40.268Z,96560.53
2022-08-14T17:22:50.035Z,96561.53
2022-08-14T17:25:53.033Z,96553.06
2022-08-14T17:29:08.889Z,96550.72
2022-08-14T17:32:19.266Z,96549.47
2022-08-14T17:35:57.419Z,96546.56
2022-08-14T17:39:05.918Z,96553.25
2022-08-14T17:42:13.277Z,96548.94
2022-08-14T17:45:26.659Z,96557.44
2022-08-14T17:49:14.194Z,96547.84
2022-08-14T17:52:01.863Z,96553.31
2022-08-14T17:55:06.189Z,96549.91
2022-08-14T17:58:20.527Z,96556.94
2022-08-14T18:01:25.923Z,96556.53
2022-08-14T18:04:35.017Z,96560.59
2022-08-14T18:07:59.266Z,96562.13
2022-08-14T18:11:07.444Z,96564.41
2022-08-14T18:14:31.361Z,96568.50
2022-08-14T18:17:41.210Z,96560.84
2022-08-14T18:21:40.623Z,96562.66
2022-08-14T18:24:20.337Z,96559.69
2022-08-14T18:27:38.326Z,96561.28
2022-08-14T18:30:58.843Z,96560.34
2022-08-14T18:34:12.232Z,96567.13
2022-08-14T18:37:34.173Z,96568.34
2022-08-14T18:40:40.164Z,96568.50
2022-08-14T18:43:59.142Z,96577.16
2022-08-14T18:47:25.574Z,96576.28
2022-08-14T18:50:30.746Z,96580.38
2022-08-14T18:53:54.531Z,96584.44
2022-08-14T18:57:02.091Z,96579.28
2022-08-14T19:00:51.107Z,96586.06
2022-08-14T19:03:56.186Z,96594.31
2022-08-14T19:07:16.544Z,96590.03
2022-08-14T19:10:35.268Z,96595.50
2022-08-14T19:13:48.409Z,96595.03
2022-08-14T19:16:54.397Z,96596.06
2022-08-14T19:20:07.375Z,96600.53
2022-08-14T19:23:21.467Z,96593.63
2022-08-14T19:26:34.007Z,96583.31
2022-08-14T19:29:40.143Z,96594.28
2022-08-14T19:32:43.258Z,96593.97
2022-08-14T19:35:55.892Z,96596.44
2022-08-14T19:39:05.978Z,96593.38
2022-08-14T19:42:12.762Z,96584.59
2022-08-14T19:45:17.448Z,96583.69
2022-08-14T19:48:21.633Z,96577.44
2022-08-14T19:51:25.825Z,96574.78
2022-08-14T19:54:37.913Z,96580.28
2022-08-14T19:57:52.445Z,96580.03
2022-08-14T20:01:08.687Z,96574.38
2022-08-14T20:04:45.159Z,96589.38
2022-08-14T20:08:00.677Z,96587.00
2022-08-14T20:11:58.632Z,96585.78
2022-08-14T20:14:51.640Z,96578.47
2022-08-14T20:17:56.657Z,96577.59
2022-08-14T20:21:05.031Z,96581.41
2022-08-14T20:24:30.934Z,96586.75
2022-08-14T20:27:40.039Z,96587.81
2022-08-14T20:30:48.653Z,96589.28
2022-08-14T20:34:18.946Z,96585.97
2022-08-14T20:37:27.635Z,96585.38
2022-08-14T20:40:34.594Z,96586.53
2022-08-14T20:43:58.624Z,96584.44
2022-08-14T20:47:04.154Z,96584.78
2022-08-14T20:50:17.003Z,96583.34
2022-08-14T20:53:34.560Z,96582.00
2022-08-14T20:56:40.753Z,96581.78
2022-08-14T20:59:46.568Z,96577.59
2022-08-14T21:02:52.264Z,96577.03
2022-08-14T21:05:56.755Z,96576.22
2022-08-14T21:09:03.578Z,96584.28
2022-08-14T21:12:08.268Z,96583.44
2022-08-14T21:15:32.128Z,96587.44
2022-08-14T21:18:47.604Z,96590.66
2022-08-14T21:21:54.746Z,96590.09
2022-08-14T21:25:02.378Z,96594.13
2022-08-14T21:28:20.943Z,96597.44
2022-08-14T21:31:33.052Z,96582.69
2022-08-14T21:34:37.643Z,96582.19
2022-08-14T21:37:46.038Z,96583.03
2022-08-14T21:40:53.153Z,96578.44
2022-08-14T21:44:17.427Z,96575.50
2022-08-14T21:47:23.632Z,96566.38
2022-08-14T21:50:59.877Z,96560.75
2022-08-14T21:53:59.211Z,96563.19
2022-08-14T21:57:13.651Z,96558.09
2022-08-14T22:00:34.698Z,96550.84
2022-08-14T22:03:45.017Z,96552.44
2022-08-14T22:06:52.264Z,96551.31
2022-08-14T22:09:55.817Z,96553.47
2022-08-14T22:13:01.210Z,96560.22
2022-08-14T22:16:05.543Z,96556.72
2022-08-14T22:19:43.467Z,96556.91
2022-08-14T22:22:56.022Z,96547.53
2022-08-14T22:26:01.674Z,96540.56
2022-08-14T22:29:07.271Z,96539.44
2022-08-14T22:32:18.835Z,96535.44
2022-08-14T22:35:29.909Z,96534.63
2022-08-14T22:38:38.837Z,96543.94
2022-08-14T22:42:03.929Z,96527.63
2022-08-14T22:45:38.019Z,96544.44
2022-08-14T22:48:40.934Z,96531.66
2022-08-14T22:51:48.222Z,96532.72
2022-08-14T22:54:53.922Z,96527.13
2022-08-14T22:57:56.775Z,96519.59
2022-08-14T23:01:01.582Z,96516.38
2022-08-14T23:04:06.289Z,96512.66
2022-08-14T23:07:22.009Z,96513.75
2022-08-14T23:10:34.005Z,96506.25
2022-08-14T23:13:38.992Z,96503.88
2022-08-14T23:16:42.624Z,96495.84
2022-08-14T23:19:46.829Z,96495.56
2022-08-14T23:22:52.750Z,96497.16
2022-08-14T23:26:47.234Z,96490.75
2022-08-14T23:29:21.077Z,96487.00
2022-08-14T23:32:23.975Z,96480.59
2022-08-14T23:35:28.647Z,96479.50
2022-08-14T23:38:36.142Z,96468.75
2022-08-14T23:41:47.124Z,96467.94
2022-08-14T23:44:55.725Z,96462.28
2022-08-14T23:47:59.392Z,96461.72
2022-08-14T23:51:04.454Z,96450.47
2022-08-14T23:54:48.117Z,96445.13
2022-08-14T23:57:31.972Z,96448.59
